METAR Data
IDs: Format: Raw Decoded Include TAF

Data at: 1108 UTC 18 Jan 2022

LRCT 181100Z 30018G28KT 9999 SCT035 00/M05 Q1025 BLU BLU